Time;durP1;ratioP1;P1;durP2;ratioP2;P2;SDS_P1;SDS_P2;PMS_P1;PMS_P2;Temp;Humidity;BMP_temperature;BMP_pressure;BME280_temperature;BME280_humidity;BME280_pressure;Samples;Min_cycle;Max_cycle;Signal;HPM_P1;HPM_P2
2023/03/25 00:01:17;;;;;;;1.42;0.55;;;;;;;15.81;92.55;95784.25;5036746;28;20076;-55
2023/03/25 00:03:52;;;;;;;0.98;0.60;;;;;;;16.32;87.72;95775.97;5042772;28;20099;-57
2023/03/25 00:06:20;;;;;;;0.95;0.52;;;;;;;15.98;90.88;95781.31;5040605;28;20426;-52
2023/03/25 00:08:48;;;;;;;2.22;0.60;;;;;;;15.84;92.42;95770.56;5041625;28;20083;-52
2023/03/25 00:11:17;;;;;;;1.67;0.73;;;;;;;16.24;85.28;95767.31;5042103;28;20076;-56
2023/03/25 00:13:46;;;;;;;6.03;0.80;;;;;;;15.95;85.86;95765.72;5039092;28;20140;-56
2023/03/25 00:16:15;;;;;;;1.05;0.60;;;;;;;16.05;85.47;95763.53;5037113;28;20137;-48
2023/03/25 00:18:43;;;;;;;2.28;0.60;;;;;;;16.03;82.69;95757.59;5039275;28;20077;-52
2023/03/25 00:21:13;;;;;;;1.10;0.70;;;;;;;16.12;82.93;95767.88;5040954;28;20072;-48
2023/03/25 00:23:42;;;;;;;2.58;0.70;;;;;;;15.90;85.74;95766.31;5036735;28;20108;-59
2023/03/25 00:26:10;;;;;;;1.52;0.55;;;;;;;16.00;84.59;95764.13;5047457;28;20076;-58
2023/03/25 00:28:39;;;;;;;1.77;0.70;;;;;;;15.93;86.90;95768.56;5051026;28;20080;-53
2023/03/25 00:31:10;;;;;;;1.25;0.55;;;;;;;16.02;84.28;95766.59;5038492;28;20136;-53
2023/03/25 00:33:43;;;;;;;0.95;0.60;;;;;;;15.71;86.14;95767.81;5038373;28;20080;-57
2023/03/25 00:36:13;;;;;;;0.80;0.50;;;;;;;16.04;83.59;95767.22;5040280;28;20080;-53
2023/03/25 00:38:44;;;;;;;1.13;0.50;;;;;;;15.95;83.69;95763.06;5038393;28;20557;-54
2023/03/25 00:41:16;;;;;;;3.35;0.75;;;;;;;16.20;77.46;95772.22;5037852;28;20640;-53
2023/03/25 00:43:45;;;;;;;0.98;0.60;;;;;;;15.98;78.95;95774.13;5038695;28;20135;-50
2023/03/25 00:46:13;;;;;;;1.00;0.73;;;;;;;16.08;78.30;95771.13;5037146;28;22322;-54
2023/03/25 00:48:41;;;;;;;2.15;0.68;;;;;;;15.82;80.60;95777.91;5038805;28;20065;-54
2023/03/25 00:51:12;;;;;;;0.55;0.38;;;;;;;15.92;79.39;95758.13;5038825;28;20092;-59
2023/03/25 00:53:42;;;;;;;;;;;;;;;16.16;75.68;95773.63;5037207;28;20274;-54
2023/03/25 00:56:11;;;;;;;2.38;0.50;;;;;;;16.18;76.05;95768.13;5037765;28;19963;-56
2023/03/25 00:58:39;;;;;;;1.65;0.88;;;;;;;15.79;80.65;95767.66;5038725;28;20084;-60
2023/03/25 01:01:11;;;;;;;2.20;0.65;;;;;;;16.01;79.59;95760.47;5070517;28;20080;-55
2023/03/25 01:03:42;;;;;;;2.03;0.80;;;;;;;16.10;78.96;95763.75;5038591;28;20061;-55
2023/03/25 01:06:11;;;;;;;1.00;0.50;;;;;;;16.10;77.79;95761.94;5041138;28;20474;-58
2023/03/25 01:08:42;;;;;;;1.85;0.70;;;;;;;16.16;76.81;95752.34;5068435;28;20080;-52
2023/03/25 01:11:17;;;;;;;1.27;0.50;;;;;;;16.32;73.95;95760.00;5034554;28;20073;-58
2023/03/25 01:13:46;;;;;;;2.17;0.63;;;;;;;16.24;74.39;95754.84;5036497;28;20083;-56
2023/03/25 01:16:14;;;;;;;0.60;0.40;;;;;;;16.12;75.60;95759.09;5037992;28;20128;-53
2023/03/25 01:18:43;;;;;;;2.28;0.60;;;;;;;16.30;72.96;95755.88;5037320;28;20533;-53
2023/03/25 01:21:11;;;;;;;1.45;0.65;;;;;;;16.76;68.21;95745.47;5037502;28;20537;-55
2023/03/25 01:23:40;;;;;;;2.35;0.55;;;;;;;16.61;68.13;95750.09;5037749;28;20083;-53
2023/03/25 01:26:11;;;;;;;2.92;0.90;;;;;;;16.94;64.81;95742.22;5036986;28;20056;-51
2023/03/25 01:28:40;;;;;;;2.60;0.98;;;;;;;16.93;65.65;95742.41;5040832;28;20539;-53
2023/03/25 01:31:10;;;;;;;0.50;0.50;;;;;;;17.03;63.46;95742.84;5045712;28;20069;-51
2023/03/25 01:33:39;;;;;;;1.02;0.55;;;;;;;16.58;67.69;95753.13;5050813;28;20080;-51
2023/03/25 01:36:09;;;;;;;1.05;0.63;;;;;;;16.81;66.10;95736.88;5048450;28;20076;-54
2023/03/25 01:38:37;;;;;;;1.77;0.60;;;;;;;16.94;66.34;95744.06;5041982;28;20072;-59
2023/03/25 01:41:06;;;;;;;0.80;0.57;;;;;;;16.82;66.96;95738.50;5049431;28;20457;-53
2023/03/25 01:43:36;;;;;;;0.77;0.55;;;;;;;16.55;67.57;95730.44;5035903;28;20091;-53
2023/03/25 01:46:05;;;;;;;0.77;0.40;;;;;;;16.85;64.76;95711.47;5040554;28;20073;-52
2023/03/25 01:48:36;;;;;;;1.52;0.50;;;;;;;16.64;66.55;95720.41;5055888;28;20544;-54
2023/03/25 01:51:09;;;;;;;4.75;0.60;;;;;;;16.47;69.37;95722.59;5048019;28;20072;-54
2023/03/25 01:53:37;;;;;;;1.25;0.40;;;;;;;16.45;69.35;95727.31;5046287;28;20513;-56
2023/03/25 01:56:07;;;;;;;3.00;0.30;;;;;;;16.12;73.40;95716.53;5036948;28;20091;-54
2023/03/25 01:58:37;;;;;;;0.38;0.30;;;;;;;16.16;72.52;95723.09;5036301;28;20049;-54
2023/03/25 02:01:10;;;;;;;0.82;0.50;;;;;;;15.92;75.50;95721.72;5039324;28;20073;-53
2023/03/25 02:03:44;;;;;;;1.67;0.45;;;;;;;16.05;75.23;95719.16;5037671;28;20073;-54
2023/03/25 02:06:18;;;;;;;2.75;0.73;;;;;;;16.05;76.23;95705.03;5035346;28;20041;-51
2023/03/25 02:08:46;;;;;;;1.15;0.52;;;;;;;16.07;74.22;95711.81;5067542;28;20369;-53
2023/03/25 02:11:18;;;;;;;0.40;0.30;;;;;;;16.07;74.77;95698.50;5041326;28;20124;-50
2023/03/25 02:13:47;;;;;;;1.75;0.60;;;;;;;16.39;72.63;95706.81;5040572;28;20084;-48
2023/03/25 02:16:26;;;;;;;4.90;0.73;;;;;;;16.26;72.05;95694.28;5034881;28;20080;-57
2023/03/25 02:19:04;;;;;;;2.28;0.60;;;;;;;16.05;76.49;95697.88;5034814;28;20072;-55
2023/03/25 02:21:52;;;;;;;1.35;0.90;;;;;;;16.08;72.22;95701.97;5038790;28;20092;-57
2023/03/25 02:24:52;;;;;;;3.53;0.88;;;;;;;16.55;70.81;95695.81;5038328;28;20099;-55
2023/03/25 02:27:32;;;;;;;1.13;0.50;;;;;;;16.20;69.32;95689.75;5018012;28;20546;-50
2023/03/25 02:30:31;;;;;;;1.47;0.80;;;;;;;15.76;71.93;95688.31;5034242;28;20084;-55
2023/03/25 02:33:29;;;;;;;1.52;0.60;;;;;;;16.15;69.80;95702.84;5033513;28;20080;-54
2023/03/25 02:36:14;;;;;;;2.20;0.82;;;;;;;16.42;68.77;95690.44;5033129;28;20076;-53
2023/03/25 02:38:47;;;;;;;3.60;0.77;;;;;;;16.10;70.75;95683.97;5036863;28;20140;-56
2023/03/25 02:41:19;;;;;;;0.55;0.45;;;;;;;15.60;75.00;95685.94;5036301;28;20073;-54
2023/03/25 02:43:51;;;;;;;5.30;0.60;;;;;;;15.99;74.58;95684.53;5035766;28;20088;-53
2023/03/25 02:46:21;;;;;;;0.88;0.55;;;;;;;15.83;75.66;95696.34;5034533;28;20076;-54
2023/03/25 02:48:53;;;;;;;3.28;0.47;;;;;;;15.50;76.97;95696.09;5037693;28;20700;-52
2023/03/25 02:51:25;;;;;;;2.38;0.45;;;;;;;15.39;80.17;95700.09;5034778;28;20079;-55
2023/03/25 02:53:56;;;;;;;2.55;0.65;;;;;;;15.34;82.36;95705.97;5033640;28;20115;-54
2023/03/25 02:56:26;;;;;;;3.10;0.80;;;;;;;15.36;81.40;95705.81;5036831;28;20518;-53
2023/03/25 02:58:55;;;;;;;3.38;0.93;;;;;;;15.39;81.02;95711.53;5036927;28;20080;-53
2023/03/25 03:01:25;;;;;;;1.50;0.40;;;;;;;15.12;81.98;95699.06;5037173;28;20481;-56
2023/03/25 03:03:54;;;;;;;3.85;0.55;;;;;;;15.13;82.77;95701.50;5037131;28;20064;-56
2023/03/25 03:06:23;;;;;;;1.10;0.38;;;;;;;15.14;81.51;95705.00;5035051;28;20085;-52
2023/03/25 03:09:04;;;;;;;1.95;0.40;;;;;;;15.07;81.37;95698.81;5037262;28;20071;-52
2023/03/25 03:11:38;;;;;;;1.55;0.60;;;;;;;15.22;80.98;95696.09;5049987;28;20546;-50
2023/03/25 03:14:20;;;;;;;0.63;0.40;;;;;;;15.50;76.13;95682.81;5038029;28;20069;-55
2023/03/25 03:16:51;;;;;;;1.20;0.47;;;;;;;15.68;73.57;95695.63;5038105;28;20170;-55
2023/03/25 03:19:30;;;;;;;1.23;0.63;;;;;;;15.66;74.00;95699.31;5036546;28;20079;-53
2023/03/25 03:22:01;;;;;;;3.03;0.82;;;;;;;15.59;75.36;95710.88;5034534;28;20087;-55
2023/03/25 03:24:32;;;;;;;2.03;0.65;;;;;;;15.43;77.03;95696.84;5033605;28;20068;-60
2023/03/25 03:27:07;;;;;;;5.68;0.63;;;;;;;15.65;75.47;95710.06;5038096;28;20068;-56
2023/03/25 03:29:37;;;;;;;1.92;0.60;;;;;;;15.14;76.12;95705.84;5038081;28;20103;-54
2023/03/25 03:32:08;;;;;;;3.65;0.68;;;;;;;15.26;77.15;95710.63;5042477;28;20501;-51
2023/03/25 03:34:43;;;;;;;0.55;0.45;;;;;;;15.57;74.21;95715.56;5046030;28;20097;-51
2023/03/25 03:37:15;;;;;;;0.98;0.47;;;;;;;15.43;73.64;95719.94;5034414;28;20087;-53
2023/03/25 03:39:46;;;;;;;2.75;0.60;;;;;;;15.11;77.90;95724.00;5039508;28;20566;-57
2023/03/25 03:42:18;;;;;;;1.73;0.60;;;;;;;15.43;74.83;95723.44;5043550;28;20088;-54
2023/03/25 03:44:50;;;;;;;1.33;0.30;;;;;;;14.73;81.09;95718.94;5040390;28;20064;-53
2023/03/25 03:47:21;;;;;;;0.95;0.40;;;;;;;15.09;80.69;95742.75;5040054;28;20160;-59
2023/03/25 03:49:52;;;;;;;4.63;0.85;;;;;;;14.90;81.02;95740.72;5037467;28;21648;-54
2023/03/25 03:52:24;;;;;;;0.90;0.50;;;;;;;14.94;80.55;95724.25;5038247;28;20514;-53
2023/03/25 03:54:56;;;;;;;1.58;0.50;;;;;;;14.97;78.67;95741.63;5038203;28;20088;-53
2023/03/25 03:57:28;;;;;;;1.42;0.60;;;;;;;15.16;80.27;95740.97;5043390;28;20080;-50
2023/03/25 04:00:03;;;;;;;1.58;0.55;;;;;;;15.23;77.92;95725.09;5037849;28;20085;-54
2023/03/25 04:02:37;;;;;;;2.40;0.60;;;;;;;15.28;79.00;95728.00;5040625;28;20084;-53
2023/03/25 04:05:07;;;;;;;2.65;0.40;;;;;;;15.42;75.31;95727.09;5038186;28;22970;-50
2023/03/25 04:07:40;;;;;;;0.30;0.30;;;;;;;14.97;78.26;95720.41;5043858;28;20087;-55
2023/03/25 04:10:14;;;;;;;0.90;0.40;;;;;;;14.92;78.24;95722.78;5037120;28;20141;-53
2023/03/25 04:12:45;;;;;;;2.58;0.60;;;;;;;15.02;80.50;95733.91;5039494;28;20064;-52
2023/03/25 04:15:14;;;;;;;2.03;0.52;;;;;;;15.19;78.21;95726.50;5039588;28;20546;-51
2023/03/25 04:17:44;;;;;;;1.75;0.50;;;;;;;14.71;78.57;95731.56;5036591;28;20208;-52
2023/03/25 04:20:15;;;;;;;0.60;0.30;;;;;;;14.54;81.94;95730.13;5039553;28;20096;-58
2023/03/25 04:22:44;;;;;;;4.03;0.47;;;;;;;14.94;79.24;95731.38;5036696;28;20134;-51
2023/03/25 04:25:14;;;;;;;0.52;0.47;;;;;;;14.95;76.27;95747.13;5040770;28;20557;-53
2023/03/25 04:27:47;;;;;;;3.83;0.73;;;;;;;14.96;76.05;95740.78;5041974;28;20077;-55
2023/03/25 04:30:17;;;;;;;2.85;0.63;;;;;;;14.89;76.46;95752.34;5040325;28;20497;-56
2023/03/25 04:32:47;;;;;;;2.70;0.47;;;;;;;15.10;75.11;95747.03;5037658;28;20085;-56
2023/03/25 04:35:17;;;;;;;2.78;0.57;;;;;;;14.78;75.79;95768.78;5037747;28;20149;-59
2023/03/25 04:37:47;;;;;;;2.45;0.50;;;;;;;15.13;73.53;95753.81;5038953;28;20468;-55
2023/03/25 04:40:17;;;;;;;;;;;;;;;15.09;72.05;95764.00;5039407;28;20079;-50
2023/03/25 04:42:46;;;;;;;3.45;0.50;;;;;;;15.29;70.64;95758.06;5041088;28;19956;-54
2023/03/25 04:45:16;;;;;;;0.55;0.43;;;;;;;14.98;71.04;95753.06;5038418;28;20447;-53
2023/03/25 04:47:45;;;;;;;1.42;0.38;;;;;;;15.37;66.82;95752.59;5036399;28;20085;-53
2023/03/25 04:50:19;;;;;;;2.63;0.52;;;;;;;15.05;67.74;95754.78;5038363;28;20510;-52
2023/03/25 04:52:47;;;;;;;4.43;0.60;;;;;;;15.73;65.99;95755.16;5037679;28;20080;-53
2023/03/25 04:55:18;;;;;;;3.38;0.65;;;;;;;15.39;64.45;95743.44;5036620;28;20072;-51
2023/03/25 04:57:46;;;;;;;;;;;;;;;15.43;64.49;95752.66;5037524;28;20081;-55
2023/03/25 05:00:17;;;;;;;0.70;0.30;;;;;;;15.47;62.92;95750.44;5068272;28;20015;-51
2023/03/25 05:02:46;;;;;;;1.85;0.32;;;;;;;15.22;65.89;95749.22;5037775;28;20510;-50
2023/03/25 05:05:17;;;;;;;0.85;0.25;;;;;;;15.17;65.80;95739.13;5035747;28;20076;-60
2023/03/25 05:07:48;;;;;;;1.77;0.40;;;;;;;15.31;64.91;95742.72;5037583;28;20080;-53
2023/03/25 05:10:18;;;;;;;4.43;0.60;;;;;;;15.51;62.95;95743.72;5053690;28;20075;-57
2023/03/25 05:12:47;;;;;;;1.67;0.40;;;;;;;15.43;63.03;95741.22;5038143;28;20095;-57
2023/03/25 05:15:17;;;;;;;4.97;0.60;;;;;;;15.17;62.28;95721.41;5040663;28;20259;-51
2023/03/25 05:17:45;;;;;;;6.47;1.65;;;;;;;15.31;63.76;95737.41;5038116;28;20490;-58
2023/03/25 05:20:15;;;;;;;2.33;0.80;;;;;;;15.65;58.68;95726.03;5037460;28;20133;-50
2023/03/25 05:22:44;;;;;;;4.22;0.55;;;;;;;15.87;58.81;95732.16;5035797;28;20111;-54
2023/03/25 05:25:12;;;;;;;4.28;0.45;;;;;;;15.77;57.83;95744.97;5039299;28;20092;-49
2023/03/25 05:27:42;;;;;;;6.70;0.60;;;;;;;16.26;56.47;95744.00;5052103;28;20086;-54
2023/03/25 05:30:11;;;;;;;3.13;0.63;;;;;;;16.16;58.06;95752.34;5049330;28;20061;-55
2023/03/25 05:32:40;;;;;;;2.10;0.55;;;;;;;15.94;56.50;95750.81;5049758;28;20088;-53
2023/03/25 05:35:10;;;;;;;1.80;0.40;;;;;;;16.29;56.55;95754.25;5048828;28;20407;-50
2023/03/25 05:37:38;;;;;;;1.48;0.47;;;;;;;15.75;58.45;95754.97;5036453;28;20601;-52
2023/03/25 05:40:09;;;;;;;2.88;0.85;;;;;;;15.99;59.04;95757.16;5039917;28;20864;-52
2023/03/25 05:42:47;;;;;;;2.65;0.40;;;;;;;15.46;61.92;95767.41;5076504;28;20076;-50
2023/03/25 05:45:16;;;;;;;0.60;0.40;;;;;;;15.44;61.90;95762.25;5049434;28;20084;-56
2023/03/25 05:47:44;;;;;;;0.98;0.40;;;;;;;15.23;63.69;95767.59;5038174;28;20080;-53
2023/03/25 05:50:14;;;;;;;0.70;0.40;;;;;;;15.01;63.59;95763.31;5039604;28;20077;-54
2023/03/25 05:52:43;;;;;;;0.22;0.20;;;;;;;15.74;60.17;95770.09;5035445;28;20093;-56
2023/03/25 05:55:13;;;;;;;1.25;0.40;;;;;;;15.47;60.15;95768.22;5036385;28;20073;-53
2023/03/25 05:57:41;;;;;;;1.40;0.52;;;;;;;15.77;59.02;95775.03;5035665;28;20077;-54
2023/03/25 06:00:14;;;;;;;1.40;0.20;;;;;;;15.79;59.10;95782.78;5036078;28;20132;-56
2023/03/25 06:02:42;;;;;;;0.93;0.40;;;;;;;15.68;61.29;95789.47;5037051;28;20581;-57
2023/03/25 06:05:13;;;;;;;0.40;0.30;;;;;;;15.97;59.50;95784.97;5036150;28;20072;-54
2023/03/25 06:07:42;;;;;;;1.23;0.40;;;;;;;15.55;61.01;95791.97;5036059;28;20147;-52
2023/03/25 06:10:11;;;;;;;0.30;0.20;;;;;;;15.55;61.48;95790.13;5035345;28;20095;-52
2023/03/25 06:12:39;;;;;;;4.57;0.60;;;;;;;15.93;60.96;95797.00;5037680;28;20439;-53
2023/03/25 06:15:12;;;;;;;3.25;0.40;;;;;;;16.34;57.96;95797.91;5036646;28;20136;-51
2023/03/25 06:17:41;;;;;;;0.93;0.40;;;;;;;16.25;58.30;95809.69;5037038;28;20447;-53
2023/03/25 06:20:11;;;;;;;1.05;0.30;;;;;;;16.22;57.96;95799.44;5045157;28;20087;-56
2023/03/25 06:22:41;;;;;;;0.25;0.20;;;;;;;15.75;60.29;95814.25;5043345;28;20084;-51
2023/03/25 06:25:11;;;;;;;0.80;0.32;;;;;;;15.50;60.63;95818.31;5045825;28;20069;-56
2023/03/25 06:27:40;;;;;;;0.65;0.20;;;;;;;15.70;61.53;95814.03;5043686;28;20075;-55
2023/03/25 06:30:12;;;;;;;0.10;0.10;;;;;;;16.03;58.79;95816.91;5046401;28;20097;-56
2023/03/25 06:32:40;;;;;;;1.55;0.20;;;;;;;16.31;57.74;95813.41;5051054;28;20065;-55
2023/03/25 06:35:10;;;;;;;1.05;0.30;;;;;;;16.26;56.41;95819.31;5048614;28;20435;-54
2023/03/25 06:37:39;;;;;;;0.30;0.20;;;;;;;16.05;57.88;95817.56;5047728;28;20079;-54
2023/03/25 06:40:08;;;;;;;0.65;0.30;;;;;;;16.33;55.02;95782.09;5046327;28;20076;-56
2023/03/25 06:42:37;;;;;;;0.20;0.20;;;;;;;16.00;56.99;95820.00;5046308;28;20107;-53
2023/03/25 06:45:06;;;;;;;0.57;0.50;;;;;;;16.64;53.58;95824.22;5045092;28;20091;-52
2023/03/25 06:47:36;;;;;;;0.75;0.30;;;;;;;15.98;54.69;95824.66;5044904;28;20072;-58
2023/03/25 06:50:06;;;;;;;1.50;0.20;;;;;;;15.99;54.78;95836.13;5047660;28;20068;-54
2023/03/25 06:52:34;;;;;;;0.20;0.20;;;;;;;15.78;55.81;95827.16;5048527;28;20079;-49
2023/03/25 06:55:03;;;;;;;0.93;0.30;;;;;;;16.21;54.87;95837.72;5049415;28;20067;-52
2023/03/25 06:57:31;;;;;;;0.90;0.30;;;;;;;16.45;53.72;95840.91;5046108;28;20083;-53
2023/03/25 06:59:59;;;;;;;0.57;0.38;;;;;;;16.35;53.29;95850.09;5045226;28;20092;-50
2023/03/25 07:02:28;;;;;;;0.52;0.35;;;;;;;16.16;50.77;95842.78;5047809;28;20103;-53
2023/03/25 07:04:57;;;;;;;2.28;0.30;;;;;;;16.11;49.24;95843.38;5048545;28;20075;-55
2023/03/25 07:07:26;;;;;;;0.83;0.30;;;;;;;16.08;51.32;95848.25;5047638;28;20455;-55
2023/03/25 07:09:54;;;;;;;0.60;0.20;;;;;;;16.42;48.60;95847.47;5047636;28;20506;-55
2023/03/25 07:12:23;;;;;;;0.22;0.20;;;;;;;16.29;48.99;95858.03;5048524;28;20064;-51
2023/03/25 07:14:52;;;;;;;0.20;0.20;;;;;;;16.52;47.86;95852.44;5051653;28;20093;-53
2023/03/25 07:17:21;;;;;;;0.95;0.20;;;;;;;17.11;46.14;95845.75;5051431;28;20452;-52
2023/03/25 07:19:50;;;;;;;0.47;0.20;;;;;;;16.92;46.01;95842.78;5048973;28;20079;-57
2023/03/25 07:22:20;;;;;;;1.00;0.40;;;;;;;16.72;46.14;95856.00;5047365;28;20068;-56
2023/03/25 07:24:48;;;;;;;1.40;0.30;;;;;;;16.71;46.38;95849.03;5050879;28;20356;-51
2023/03/25 07:27:16;;;;;;;2.28;0.30;;;;;;;16.83;45.83;95866.13;5041159;28;20091;-60
2023/03/25 07:29:45;;;;;;;0.70;0.50;;;;;;;16.43;46.92;95858.91;5050154;28;20075;-53
2023/03/25 07:32:13;;;;;;;2.05;0.40;;;;;;;16.37;47.65;95877.31;5050897;28;20514;-55
2023/03/25 07:34:41;;;;;;;0.90;0.40;;;;;;;16.06;48.16;95867.06;5050726;28;20068;-53
2023/03/25 07:37:10;;;;;;;0.52;0.32;;;;;;;16.34;47.73;95872.41;5049486;28;20095;-52
2023/03/25 07:39:39;;;;;;;1.38;0.35;;;;;;;16.65;47.79;95872.97;5050910;28;20072;-54
2023/03/25 07:42:08;;;;;;;0.23;0.20;;;;;;;16.38;50.29;95883.47;5051108;28;20069;-54
2023/03/25 07:44:36;;;;;;;0.28;0.20;;;;;;;16.79;48.77;95878.22;5049308;28;20104;-54
2023/03/25 07:47:04;;;;;;;0.50;0.43;;;;;;;16.85;49.04;95889.88;5050716;28;20142;-55
2023/03/25 07:49:33;;;;;;;0.90;0.30;;;;;;;16.66;48.78;95894.06;5050347;28;20077;-57
2023/03/25 07:52:01;;;;;;;0.55;0.38;;;;;;;16.59;49.17;95894.03;5048860;28;20071;-51
2023/03/25 07:54:29;;;;;;;0.30;0.30;;;;;;;16.72;49.28;95895.13;5050954;28;20073;-54
2023/03/25 07:56:59;;;;;;;0.57;0.20;;;;;;;17.38;46.70;95881.25;5050304;28;20493;-56
2023/03/25 07:59:28;;;;;;;0.57;0.20;;;;;;;17.63;47.28;95887.69;5049231;28;20072;-53
2023/03/25 08:01:56;;;;;;;0.95;0.28;;;;;;;17.50;46.06;95874.31;5049741;28;20507;-54
2023/03/25 08:04:25;;;;;;;0.57;0.22;;;;;;;17.51;46.73;95878.63;5045486;28;20518;-52
2023/03/25 08:06:54;;;;;;;0.82;0.40;;;;;;;17.48;46.73;95890.53;5047867;28;20675;-51
2023/03/25 08:09:23;;;;;;;0.73;0.43;;;;;;;16.87;48.37;95881.72;5045979;28;20068;-58
2023/03/25 08:11:51;;;;;;;0.38;0.30;;;;;;;17.47;47.32;95894.19;5041988;28;20102;-50
2023/03/25 08:14:21;;;;;;;0.80;0.30;;;;;;;16.92;48.44;95892.59;5045349;28;20530;-52
2023/03/25 08:16:49;;;;;;;2.93;1.03;;;;;;;16.79;49.11;95886.19;5045764;28;20083;-54
2023/03/25 08:19:18;;;;;;;2.72;0.50;;;;;;;17.33;48.27;95895.19;5047168;28;20479;-53
2023/03/25 08:21:46;;;;;;;1.02;0.40;;;;;;;17.88;47.04;95885.28;5049043;28;20064;-48
2023/03/25 08:24:14;;;;;;;1.67;0.50;;;;;;;17.70;47.16;95883.19;5044397;28;20047;-49
2023/03/25 08:26:43;;;;;;;2.22;0.30;;;;;;;17.58;47.55;95883.97;5046521;28;20068;-52
2023/03/25 08:29:11;;;;;;;1.75;0.38;;;;;;;17.64;47.20;95889.31;5047339;28;20167;-53
2023/03/25 08:31:45;;;;;;;0.57;0.28;;;;;;;18.05;46.17;95883.03;5043998;28;20108;-54
2023/03/25 08:34:14;;;;;;;1.13;0.30;;;;;;;18.31;45.59;95884.06;5049809;28;20098;-53
2023/03/25 08:36:42;;;;;;;3.40;0.30;;;;;;;18.51;44.79;95879.47;5047396;28;20103;-54
2023/03/25 08:39:11;;;;;;;2.58;0.50;;;;;;;17.85;46.50;95882.19;5052042;28;20077;-51
2023/03/25 08:41:40;;;;;;;2.25;0.45;;;;;;;18.53;45.41;95873.94;5045892;28;20448;-52
2023/03/25 08:44:08;;;;;;;1.50;0.40;;;;;;;18.95;43.43;95876.09;5046336;28;20088;-57
2023/03/25 08:46:36;;;;;;;2.08;0.40;;;;;;;19.30;43.62;95872.25;5046285;28;20172;-56
2023/03/25 08:49:06;;;;;;;0.63;0.30;;;;;;;18.63;46.25;95875.16;5045618;28;20089;-47
2023/03/25 08:51:35;;;;;;;3.97;0.40;;;;;;;18.11;45.45;95879.53;5044957;28;20541;-53
2023/03/25 08:54:03;;;;;;;3.50;0.40;;;;;;;18.03;46.18;95874.41;5046964;28;20084;-54
2023/03/25 08:56:32;;;;;;;0.75;0.55;;;;;;;17.26;48.08;95881.84;5049679;28;20111;-50
2023/03/25 08:59:00;;;;;;;0.82;0.25;;;;;;;17.75;47.99;95877.22;5044654;28;20081;-51
2023/03/25 09:01:28;;;;;;;0.60;0.20;;;;;;;17.97;47.04;95875.25;5045420;28;20251;-51
2023/03/25 09:03:57;;;;;;;0.32;0.10;;;;;;;17.31;49.78;95882.09;5049367;28;20080;-53
2023/03/25 09:06:26;;;;;;;0.50;0.20;;;;;;;17.11;49.56;95881.19;5049676;28;20089;-57
2023/03/25 09:08:56;;;;;;;2.67;0.20;;;;;;;16.47;52.11;95881.47;5049019;28;20088;-52
2023/03/25 09:11:24;;;;;;;0.85;0.40;;;;;;;16.97;52.35;95885.66;5049468;28;20561;-53
2023/03/25 09:14:04;;;;;;;0.10;0.10;;;;;;;16.25;56.16;95883.38;5049627;28;20087;-53
2023/03/25 09:16:33;;;;;;;1.15;0.20;;;;;;;16.16;56.39;95866.72;5054233;28;20530;-54
2023/03/25 09:19:01;;;;;;;0.80;0.38;;;;;;;16.37;54.49;95903.09;5049380;28;20081;-52
2023/03/25 09:21:31;;;;;;;0.17;0.17;;;;;;;16.97;53.46;95883.00;5051497;28;20084;-54
2023/03/25 09:23:59;;;;;;;1.63;0.17;;;;;;;16.50;53.75;95865.09;5047279;28;20080;-56
2023/03/25 09:26:28;;;;;;;0.20;0.20;;;;;;;16.78;54.98;95873.06;5049423;28;20084;-51
2023/03/25 09:28:56;;;;;;;0.30;0.20;;;;;;;17.04;55.36;95881.19;5045442;28;20662;-56
2023/03/25 09:31:24;;;;;;;0.35;0.20;;;;;;;17.83;52.77;95870.94;5047266;28;20545;-53
2023/03/25 09:33:53;;;;;;;0.68;0.10;;;;;;;17.93;50.45;95863.34;5046816;28;20084;-54
2023/03/25 09:36:21;;;;;;;0.57;0.28;;;;;;;17.28;51.01;95871.00;5046127;28;20097;-55
2023/03/25 09:38:51;;;;;;;1.20;0.30;;;;;;;16.78;53.31;95865.06;5047905;28;20088;-55
2023/03/25 09:41:40;;;;;;;1.00;0.50;;;;;;;17.22;53.99;95867.28;5049211;28;20084;-51
2023/03/25 09:44:14;;;;;;;0.77;0.30;;;;;;;17.99;51.31;95854.50;5048928;28;20088;-54
2023/03/25 09:46:43;;;;;;;0.47;0.20;;;;;;;17.31;54.39;95862.63;5049139;28;20088;-56
2023/03/25 09:49:15;;;;;;;0.82;0.30;;;;;;;18.39;47.84;95847.28;5049131;28;20530;-53
2023/03/25 09:51:44;;;;;;;1.00;0.30;;;;;;;18.14;48.41;95841.78;5048855;28;20084;-52
2023/03/25 09:54:20;;;;;;;0.30;0.10;;;;;;;18.29;47.59;95846.06;5048752;28;20080;-53
2023/03/25 09:56:49;;;;;;;0.75;0.40;;;;;;;18.58;45.57;95847.44;5048440;28;20088;-51
2023/03/25 09:59:20;;;;;;;0.30;0.30;;;;;;;18.02;49.36;95828.22;5047867;28;20096;-51
2023/03/25 10:01:55;;;;;;;3.88;0.35;;;;;;;17.98;47.82;95847.53;5048377;28;20371;-51
2023/03/25 10:04:51;;;;;;;1.48;0.40;;;;;;;18.67;44.55;95811.47;5048984;28;20107;-51
2023/03/25 10:07:32;;;;;;;1.88;0.35;;;;;;;18.49;45.62;95834.31;5047245;28;20084;-51
2023/03/25 10:10:08;;;;;;;0.95;0.30;;;;;;;18.52;45.24;95838.41;5046250;28;20077;-51
2023/03/25 10:12:42;;;;;;;0.75;0.30;;;;;;;18.99;43.79;95844.44;5048534;28;20084;-53
2023/03/25 10:15:20;;;;;;;0.30;0.22;;;;;;;18.22;46.84;95843.41;5048165;28;20076;-53
2023/03/25 10:17:57;;;;;;;3.67;0.38;;;;;;;17.89;45.11;95833.56;5047861;28;20752;-58
2023/03/25 10:20:38;;;;;;;1.08;0.30;;;;;;;19.06;44.39;95833.72;5046282;28;20095;-54
2023/03/25 10:23:07;;;;;;;;;;;;;;;18.95;44.78;95832.53;5044635;28;20072;-56
2023/03/25 10:25:40;;;;;;;2.40;0.30;;;;;;;18.44;45.82;95843.97;5043007;28;19964;-54
2023/03/25 10:28:14;;;;;;;1.10;0.40;;;;;;;18.88;43.43;95808.50;5044130;28;20371;-58
2023/03/25 10:30:45;;;;;;;0.82;0.30;;;;;;;18.80;44.57;95811.44;5046786;28;20084;-51
2023/03/25 10:33:19;;;;;;;0.90;0.40;;;;;;;19.00;44.25;95819.38;5045213;28;20096;-54
2023/03/25 10:35:48;;;;;;;2.22;1.20;;;;;;;19.12;43.76;95823.00;5044632;28;20501;-54
2023/03/25 10:38:20;;;;;;;6.32;0.30;;;;;;;19.10;43.47;95818.91;5043167;28;20081;-58
2023/03/25 10:40:52;;;;;;;1.42;0.35;;;;;;;18.63;43.77;95786.22;5045038;28;20076;-47
2023/03/25 10:43:24;;;;;;;0.32;0.20;;;;;;;18.41;43.48;95799.84;5044227;28;20069;-45
2023/03/25 10:45:56;;;;;;;1.13;0.40;;;;;;;18.68;44.65;95792.53;5043490;28;20491;-46
2023/03/25 10:48:26;;;;;;;1.95;0.45;;;;;;;18.60;42.49;95808.00;5044383;28;20553;-49
2023/03/25 10:51:10;;;;;;;1.50;0.40;;;;;;;18.20;44.06;95813.41;5044102;28;20081;-49
2023/03/25 10:53:40;;;;;;;1.95;0.40;;;;;;;17.76;45.56;95799.72;5042126;28;20073;-45
2023/03/25 10:56:13;;;;;;;1.07;0.40;;;;;;;17.79;45.85;95812.66;5043610;28;20083;-48
2023/03/25 10:58:43;;;;;;;3.00;0.57;;;;;;;17.95;44.84;95784.72;5043069;28;20089;-47
2023/03/25 11:01:12;;;;;;;1.95;0.30;;;;;;;17.59;46.41;95769.16;5038472;28;20088;-49
2023/03/25 11:03:42;;;;;;;1.17;0.30;;;;;;;17.74;48.97;95772.41;5043115;28;22146;-43
2023/03/25 11:06:21;;;;;;;0.57;0.20;;;;;;;18.29;47.76;95774.81;5043526;28;20471;-46
2023/03/25 11:09:16;;;;;;;0.88;0.30;;;;;;;18.33;44.10;95770.69;5042558;28;20538;-46
2023/03/25 11:11:47;;;;;;;0.60;0.35;;;;;;;18.02;45.65;95769.53;5042362;28;20088;-49
2023/03/25 11:14:16;;;;;;;0.10;0.10;;;;;;;17.99;45.13;95758.44;5045170;28;20077;-46
2023/03/25 11:16:47;;;;;;;0.20;0.20;;;;;;;18.35;46.31;95735.78;5042178;28;20096;-49
2023/03/25 11:19:19;;;;;;;1.48;0.50;;;;;;;19.08;43.55;95746.16;5045196;28;20083;-45
2023/03/25 11:21:48;;;;;;;0.60;0.22;;;;;;;18.93;42.50;95725.06;5043346;28;20121;-53
2023/03/25 11:24:19;;;;;;;1.05;0.30;;;;;;;18.82;41.22;95745.25;5040621;28;20534;-47
2023/03/25 11:26:50;;;;;;;;;;;;;;;19.57;41.64;95755.25;5044658;28;20084;-49
2023/03/25 11:29:19;;;;;;;0.70;0.10;;;;;;;19.63;42.55;95744.53;5041749;28;19964;-48
2023/03/25 11:31:57;;;;;;;0.35;0.28;;;;;;;19.35;42.23;95747.59;5043769;28;20695;-49
2023/03/25 11:34:26;;;;;;;0.38;0.20;;;;;;;18.66;45.63;95743.06;5043795;28;20096;-46
2023/03/25 11:36:59;;;;;;;0.93;0.30;;;;;;;19.48;43.38;95717.28;5040818;28;20089;-48
2023/03/25 11:39:33;;;;;;;0.20;0.20;;;;;;;19.23;46.07;95713.75;5041014;28;20139;-51
2023/03/25 11:42:11;;;;;;;0.20;0.20;;;;;;;18.86;45.89;95705.59;5043579;28;20550;-48
2023/03/25 11:44:40;;;;;;;0.20;0.20;;;;;;;19.68;42.63;95720.63;5042042;28;20088;-51
2023/03/25 11:47:10;;;;;;;0.10;0.10;;;;;;;19.50;41.37;95712.50;5042462;28;20534;-50
2023/03/25 11:49:40;;;;;;;0.20;0.20;;;;;;;19.54;42.80;95704.88;5042310;28;20096;-47
2023/03/25 11:52:15;;;;;;;0.10;0.10;;;;;;;20.32;43.63;95697.09;5040252;28;20077;-48